Time;durP1;ratioP1;P1;durP2;ratioP2;P2;SDS_P1;SDS_P2;PMS_P1;PMS_P2;Temp;Humidity;BMP_temperature;BMP_pressure;BME280_temperature;BME280_humidity;BME280_pressure;Samples;Min_cycle;Max_cycle;Signal;HPM_P1;HPM_P2
2023/02/22 00:00:35;;;;;;;99.85;31.23;;;7.60;99.90;;;;;;4954742;28;20385;-69
2023/02/22 00:03:02;;;;;;;120.43;35.88;;;7.60;99.90;;;;;;4972373;28;20146;-69
2023/02/22 00:05:30;;;;;;;117.85;33.30;;;7.60;99.90;;;;;;4961515;28;20542;-70
2023/02/22 00:07:57;;;;;;;118.07;35.10;;;7.60;99.90;;;;;;4973354;28;20480;-69
2023/02/22 00:10:24;;;;;;;109.43;33.05;;;7.60;99.90;;;;;;4962833;28;20034;-69
2023/02/22 00:12:52;;;;;;;108.80;34.00;;;7.60;99.90;;;;;;4971002;28;20042;-69
2023/02/22 00:15:26;;;;;;;116.95;35.88;;;7.60;99.90;;;;;;4970241;28;20141;-69
2023/02/22 00:17:53;;;;;;;102.60;33.72;;;7.60;99.90;;;;;;4966417;28;20137;-69
2023/02/22 00:20:22;;;;;;;111.18;36.70;;;7.60;99.90;;;;;;4971158;28;20045;-69
2023/02/22 00:22:52;;;;;;;105.75;32.42;;;7.60;99.90;;;;;;4963773;28;20078;-69
2023/02/22 00:25:21;;;;;;;98.05;32.42;;;7.50;99.90;;;;;;4967512;28;20058;-68
2023/02/22 00:27:52;;;;;;;107.15;34.08;;;7.50;99.90;;;;;;4968442;28;20298;-69
2023/02/22 00:30:25;;;;;;;106.07;31.83;;;7.50;99.90;;;;;;4964874;28;20047;-69
2023/02/22 00:32:54;;;;;;;113.28;34.25;;;7.40;99.90;;;;;;4973166;28;20046;-70
2023/02/22 00:35:27;;;;;;;106.80;34.55;;;7.40;99.90;;;;;;4967470;28;20035;-69
2023/02/22 00:37:57;;;;;;;116.75;32.45;;;7.40;99.90;;;;;;4966908;28;20046;-69
2023/02/22 00:40:27;;;;;;;102.25;34.08;;;7.40;99.90;;;;;;4970709;28;20042;-68
2023/02/22 00:42:53;;;;;;;109.95;32.75;;;7.40;99.90;;;;;;4966770;28;20122;-69
2023/02/22 00:45:22;;;;;;;100.15;31.20;;;7.40;99.90;;;;;;4964254;28;20045;-69
2023/02/22 00:47:50;;;;;;;107.07;35.25;;;7.40;99.90;;;;;;4964356;28;20517;-69
2023/02/22 00:50:18;;;;;;;108.57;35.90;;;7.40;99.90;;;;;;4973468;28;20050;-69
2023/02/22 00:52:45;;;;;;;114.55;34.92;;;7.40;99.90;;;;;;4970826;28;20054;-68
2023/02/22 00:55:21;;;;;;;123.43;33.53;;;7.40;99.90;;;;;;4971429;28;20282;-69
2023/02/22 00:57:48;;;;;;;142.43;39.55;;;7.40;99.90;;;;;;4969775;28;20118;-69
2023/02/22 01:00:19;;;;;;;128.38;38.40;;;7.40;99.90;;;;;;4950662;28;20421;-69
2023/02/22 01:02:49;;;;;;;127.22;37.63;;;7.40;99.90;;;;;;4965581;28;20070;-69
2023/02/22 01:05:19;;;;;;;144.93;40.38;;;7.40;99.90;;;;;;4968082;28;20070;-69
2023/02/22 01:07:48;;;;;;;146.60;41.35;;;7.40;99.90;;;;;;4968734;28;20456;-70
2023/02/22 01:10:18;;;;;;;141.13;44.35;;;7.40;99.90;;;;;;4968012;28;20038;-70
2023/02/22 01:12:46;;;;;;;148.30;43.05;;;7.40;99.90;;;;;;4966621;28;20049;-69
2023/02/22 01:15:13;;;;;;;152.48;44.35;;;7.40;99.90;;;;;;4962885;28;20118;-68
2023/02/22 01:17:42;;;;;;;148.23;42.85;;;7.40;99.90;;;;;;4966580;28;20054;-69
2023/02/22 01:20:13;;;;;;;149.95;42.90;;;7.40;99.90;;;;;;4968750;28;20133;-69
2023/02/22 01:22:52;;;;;;;166.73;45.88;;;7.40;99.90;;;;;;4964106;28;20046;-70
2023/02/22 01:25:22;;;;;;;145.82;42.03;;;7.40;99.90;;;;;;4968910;28;20409;-68
2023/02/22 01:27:49;;;;;;;148.25;42.92;;;7.50;99.90;;;;;;4961907;28;20716;-70
2023/02/22 01:30:21;;;;;;;124.38;38.95;;;7.60;99.90;;;;;;4968165;28;20130;-69
2023/02/22 01:32:50;;;;;;;145.73;41.40;;;7.60;99.90;;;;;;4969472;28;20050;-69
2023/02/22 01:35:19;;;;;;;136.55;41.05;;;7.60;99.90;;;;;;4964184;28;20046;-69
2023/02/22 01:37:45;;;;;;;142.25;42.25;;;7.70;99.90;;;;;;4971341;28;20050;-69
2023/02/22 01:40:26;;;;;;;151.25;43.22;;;7.70;99.90;;;;;;4973323;28;20141;-70
2023/02/22 01:42:56;;;;;;;145.82;44.00;;;7.70;99.90;;;;;;4966949;28;20050;-70
2023/02/22 01:45:28;;;;;;;140.95;41.40;;;7.80;99.90;;;;;;4957802;28;20043;-69
2023/02/22 01:48:12;;;;;;;140.60;43.13;;;7.80;99.90;;;;;;4967385;28;20172;-70
2023/02/22 01:50:43;;;;;;;126.57;41.10;;;7.70;99.90;;;;;;4970098;28;20489;-70
2023/02/22 01:53:15;;;;;;;156.32;41.83;;;7.80;99.90;;;;;;4973426;28;20141;-70
2023/02/22 01:55:43;;;;;;;157.55;43.00;;;7.80;99.90;;;;;;4967456;28;20983;-69
2023/02/22 01:58:10;;;;;;;141.27;41.78;;;7.80;99.90;;;;;;4973411;28;20122;-70
2023/02/22 02:00:38;;;;;;;158.35;45.05;;;7.80;99.90;;;;;;4971720;28;20133;-70
2023/02/22 02:03:16;;;;;;;129.57;41.97;;;7.80;99.90;;;;;;4976077;28;20319;-70
2023/02/22 02:05:44;;;;;;;169.52;48.45;;;7.80;99.90;;;;;;4968722;28;20043;-71
2023/02/22 02:08:31;;;;;;;144.98;43.97;;;7.80;99.90;;;;;;4973503;28;20250;-69
2023/02/22 02:11:00;;;;;;;140.05;41.30;;;7.80;99.90;;;;;;4988887;28;20464;-70
2023/02/22 02:13:27;;;;;;;162.75;46.83;;;7.80;99.90;;;;;;4974373;28;20173;-70
2023/02/22 02:15:54;;;;;;;184.15;47.30;;;7.80;99.90;;;;;;4971068;28;20046;-71
2023/02/22 02:18:23;;;;;;;189.60;52.22;;;7.80;99.90;;;;;;4953751;28;20412;-70
2023/02/22 02:21:04;;;;;;;178.68;48.95;;;7.80;99.90;;;;;;4970815;28;20225;-70
2023/02/22 02:23:50;;;;;;;178.70;52.60;;;7.80;99.90;;;;;;4967916;28;20038;-69
2023/02/22 02:26:49;;;;;;;181.88;50.72;;;7.90;99.90;;;;;;4964868;28;20528;-69
2023/02/22 02:29:43;;;;;;;185.07;50.70;;;7.90;99.90;;;;;;4987793;28;20535;-69
2023/02/22 02:32:16;;;;;;;175.27;51.63;;;7.90;99.90;;;;;;4969023;28;20045;-69
2023/02/22 02:34:53;;;;;;;165.93;53.53;;;7.90;99.90;;;;;;4963190;28;20047;-69
2023/02/22 02:37:39;;;;;;;175.30;54.38;;;7.90;99.90;;;;;;4969958;28;20038;-69
2023/02/22 02:40:23;;;;;;;170.85;51.72;;;7.90;99.90;;;;;;4972118;28;20109;-69
2023/02/22 02:43:02;;;;;;;171.02;52.30;;;7.90;99.90;;;;;;4960161;28;20034;-69
2023/02/22 02:45:37;;;;;;;179.98;53.95;;;8.00;99.90;;;;;;4968211;28;20038;-70
2023/02/22 02:48:08;;;;;;;172.73;52.42;;;7.90;99.90;;;;;;4975317;28;20040;-69
2023/02/22 02:50:46;;;;;;;177.43;51.15;;;7.90;99.90;;;;;;4974715;28;20469;-68
2023/02/22 02:53:19;;;;;;;173.60;50.13;;;7.90;99.90;;;;;;4989285;28;20107;-68
2023/02/22 02:55:46;;;;;;;188.18;52.65;;;7.80;99.90;;;;;;4990232;28;20046;-68
2023/02/22 02:58:19;;;;;;;169.45;52.75;;;7.80;99.90;;;;;;4976142;28;20537;-69
2023/02/22 03:00:49;;;;;;;169.10;50.20;;;7.90;99.90;;;;;;4964889;28;20070;-69
2023/02/22 03:03:36;;;;;;;170.13;51.53;;;7.80;99.90;;;;;;4966570;28;20555;-69
2023/02/22 03:06:05;;;;;;;169.48;49.28;;;7.90;99.90;;;;;;4950430;28;20065;-69
2023/02/22 03:08:44;;;;;;;162.25;46.80;;;7.80;99.90;;;;;;4967867;28;20046;-69
2023/02/22 03:11:26;;;;;;;161.90;48.08;;;7.80;99.90;;;;;;4975844;28;20046;-68
2023/02/22 03:14:37;;;;;;;174.63;50.95;;;7.90;99.90;;;;;;4979358;28;20173;-69
2023/02/22 03:17:20;;;;;;;180.38;53.08;;;7.90;99.90;;;;;;4971789;28;20047;-69
2023/02/22 03:19:57;;;;;;;184.02;51.38;;;7.90;99.90;;;;;;4982664;28;20042;-69
2023/02/22 03:22:31;;;;;;;168.05;50.72;;;7.90;99.90;;;;;;4961065;28;20042;-68
2023/02/22 03:25:05;;;;;;;176.87;54.87;;;7.90;99.90;;;;;;4951359;28;20401;-69
2023/02/22 03:27:45;;;;;;;180.10;48.10;;;7.90;99.90;;;;;;4967628;28;20866;-70
2023/02/22 03:30:22;;;;;;;184.90;54.85;;;7.90;99.90;;;;;;4949516;28;20123;-70
2023/02/22 03:32:55;;;;;;;184.43;52.55;;;8.00;99.90;;;;;;4965002;28;20144;-68
2023/02/22 03:35:32;;;;;;;178.98;53.85;;;7.90;99.90;;;;;;4968976;28;20397;-67
2023/02/22 03:38:02;;;;;;;166.57;49.42;;;7.90;99.90;;;;;;4969176;28;20569;-69
2023/02/22 03:40:35;;;;;;;169.60;48.20;;;7.90;99.90;;;;;;4968411;28;20248;-69
2023/02/22 03:43:15;;;;;;;179.65;51.58;;;7.90;99.90;;;;;;4972386;28;20039;-68
2023/02/22 03:45:47;;;;;;;179.95;50.85;;;7.90;99.90;;;;;;4966599;28;20056;-69
2023/02/22 03:48:21;;;;;;;181.02;52.80;;;7.90;99.90;;;;;;4967127;28;20386;-71
2023/02/22 03:50:49;;;;;;;181.88;50.88;;;7.90;99.90;;;;;;4971407;28;20369;-71
2023/02/22 03:53:18;;;;;;;184.55;51.92;;;7.90;99.90;;;;;;4966124;28;20081;-71
2023/02/22 03:55:50;;;;;;;184.50;52.90;;;7.90;99.90;;;;;;4977408;28;20072;-71
2023/02/22 03:58:21;;;;;;;174.00;49.28;;;7.90;99.90;;;;;;4971625;28;20042;-71
2023/02/22 04:00:51;;;;;;;171.32;51.13;;;7.90;99.90;;;;;;4971645;28;20504;-71
2023/02/22 04:03:22;;;;;;;181.38;54.33;;;7.90;99.90;;;;;;4946019;28;20409;-69
2023/02/22 04:05:50;;;;;;;204.45;56.53;;;7.90;99.90;;;;;;4943793;28;20109;-69
2023/02/22 04:08:18;;;;;;;187.20;55.25;;;7.90;99.90;;;;;;4979418;28;20482;-71
2023/02/22 04:10:45;;;;;;;188.15;52.88;;;7.90;99.90;;;;;;4945008;28;20342;-69
2023/02/22 04:13:13;;;;;;;188.75;55.80;;;7.90;99.90;;;;;;4955280;28;20042;-68
2023/02/22 04:15:43;;;;;;;187.38;51.53;;;7.90;99.90;;;;;;4963493;28;21008;-69
2023/02/22 04:18:11;;;;;;;213.82;55.90;;;7.90;99.90;;;;;;4968018;28;20549;-69
2023/02/22 04:20:38;;;;;;;205.95;56.75;;;7.90;99.90;;;;;;4966426;28;20319;-69
2023/02/22 04:23:10;;;;;;;193.40;55.53;;;7.90;99.90;;;;;;4964054;28;20445;-68
2023/02/22 04:25:39;;;;;;;215.35;55.78;;;7.80;99.90;;;;;;4950455;28;20038;-68
2023/02/22 04:28:15;;;;;;;207.60;54.50;;;7.80;99.90;;;;;;4953666;28;20042;-69
2023/02/22 04:31:00;;;;;;;228.10;58.75;;;7.80;99.90;;;;;;4968293;28;20622;-71
2023/02/22 04:33:28;;;;;;;219.07;57.88;;;7.80;99.90;;;;;;5010871;23;20061;-77
2023/02/22 04:35:56;;;;;;;219.98;58.63;;;7.80;99.90;;;;;;5010641;28;20041;-75
2023/02/22 04:38:24;;;;;;;225.82;59.17;;;7.70;99.90;;;;;;5011438;28;20369;-74
2023/02/22 04:40:53;;;;;;;215.45;58.47;;;7.70;99.90;;;;;;5006274;28;20041;-76
2023/02/22 04:43:21;;;;;;;227.20;63.42;;;7.70;99.90;;;;;;4996536;28;20048;-74
2023/02/22 04:46:03;;;;;;;231.30;61.00;;;7.70;99.90;;;;;;5012087;28;20510;-75
2023/02/22 04:48:30;;;;;;;238.10;63.30;;;7.70;99.90;;;;;;4993873;28;20053;-74
2023/02/22 04:50:57;;;;;;;245.50;65.43;;;7.70;99.90;;;;;;5007466;28;20046;-76
2023/02/22 04:53:24;;;;;;;234.10;61.22;;;7.70;99.90;;;;;;5010703;28;20049;-75
2023/02/22 04:55:54;;;;;;;269.65;64.38;;;7.70;99.90;;;;;;5028215;28;20562;-76
2023/02/22 04:58:22;;;;;;;263.65;65.07;;;7.70;99.90;;;;;;5017384;28;20049;-75
2023/02/22 05:00:48;;;;;;;262.13;61.63;;;7.80;99.90;;;;;;5011303;28;20353;-74
2023/02/22 05:03:15;;;;;;;234.13;61.80;;;7.70;99.90;;;;;;4996980;28;20048;-76
2023/02/22 05:05:42;;;;;;;264.13;65.60;;;7.70;99.90;;;;;;5010187;28;20129;-76
2023/02/22 05:08:08;;;;;;;266.33;64.43;;;7.60;99.90;;;;;;5012704;28;20034;-76
2023/02/22 05:10:35;;;;;;;238.48;57.35;;;7.60;99.90;;;;;;5015099;28;20513;-76
2023/02/22 05:13:02;;;;;;;252.40;61.83;;;7.60;99.90;;;;;;5019194;28;20049;-75
2023/02/22 05:15:29;;;;;;;243.60;58.42;;;7.60;99.90;;;;;;4996111;28;20140;-76
2023/02/22 05:17:56;;;;;;;238.13;61.45;;;7.60;99.90;;;;;;5017786;28;20047;-75
2023/02/22 05:20:27;;;;;;;269.70;64.57;;;7.50;99.90;;;;;;5018535;28;20128;-76
2023/02/22 05:22:59;;;;;;;247.85;64.68;;;7.60;99.90;;;;;;5011919;28;20051;-76
2023/02/22 05:25:26;;;;;;;257.38;64.18;;;7.50;99.90;;;;;;5009784;28;20042;-74
2023/02/22 05:27:56;;;;;;;245.45;62.40;;;7.50;99.90;;;;;;5005880;28;20042;-76
2023/02/22 05:30:25;;;;;;;242.48;64.07;;;7.50;99.90;;;;;;5013797;28;20053;-76
2023/02/22 05:32:55;;;;;;;261.27;64.20;;;7.50;99.90;;;;;;5017047;28;20060;-74
2023/02/22 05:35:22;;;;;;;260.98;62.78;;;7.50;99.90;;;;;;5016709;28;20402;-76
2023/02/22 05:37:49;;;;;;;249.52;66.38;;;7.50;99.90;;;;;;5015193;28;20064;-77
2023/02/22 05:40:23;;;;;;;288.48;66.45;;;7.50;99.90;;;;;;5010020;28;20046;-77
2023/02/22 05:42:52;;;;;;;264.65;68.63;;;7.50;99.90;;;;;;5027562;28;20045;-75
2023/02/22 05:45:21;;;;;;;251.75;65.32;;;7.50;99.90;;;;;;5005669;28;20046;-76
2023/02/22 05:47:48;;;;;;;253.07;66.38;;;7.50;99.90;;;;;;5016097;28;20045;-74
2023/02/22 05:50:16;;;;;;;256.75;64.22;;;7.40;99.90;;;;;;5009776;28;20067;-76
2023/02/22 05:52:43;;;;;;;236.57;64.10;;;7.40;99.90;;;;;;5017418;28;20059;-78
2023/02/22 05:55:12;;;;;;;242.02;64.57;;;7.40;99.90;;;;;;5022847;28;20112;-79
2023/02/22 05:57:39;;;;;;;252.07;65.57;;;7.40;99.90;;;;;;5017580;28;20037;-75
2023/02/22 06:00:06;;;;;;;249.13;67.93;;;7.40;99.90;;;;;;5023978;28;20253;-77
2023/02/22 06:02:39;;;;;;;243.65;65.20;;;7.40;99.90;;;;;;5029529;28;20053;-75
2023/02/22 06:05:06;;;;;;;257.48;69.30;;;7.30;99.90;;;;;;5022761;28;20380;-74
2023/02/22 06:07:33;;;;;;;264.52;69.63;;;7.30;99.90;;;;;;5023612;28;20179;-75
2023/02/22 06:10:00;;;;;;;231.10;64.22;;;7.30;99.90;;;;;;5022626;28;20037;-76
2023/02/22 06:12:27;;;;;;;261.05;68.43;;;7.30;99.90;;;;;;5006658;28;20034;-76
2023/02/22 06:14:53;;;;;;;272.92;70.07;;;7.20;99.90;;;;;;5017650;28;20184;-76
2023/02/22 06:17:20;;;;;;;250.93;67.22;;;7.30;99.90;;;;;;5016781;28;20037;-75
2023/02/22 06:19:47;;;;;;;239.25;63.70;;;7.20;99.90;;;;;;4998199;28;20168;-75
2023/02/22 06:22:18;;;;;;;236.40;66.45;;;7.20;99.90;;;;;;5010876;28;20071;-75
2023/02/22 06:24:45;;;;;;;228.80;63.72;;;7.30;99.90;;;;;;5019127;28;21116;-75
2023/02/22 06:27:12;;;;;;;232.70;66.07;;;7.20;99.90;;;;;;5028852;28;20045;-74
2023/02/22 06:29:38;;;;;;;214.57;57.08;;;7.20;99.90;;;;;;5013744;28;20053;-74
2023/02/22 06:32:05;;;;;;;239.77;61.88;;;7.10;99.90;;;;;;5024490;28;20054;-74
2023/02/22 06:34:32;;;;;;;259.75;66.78;;;7.00;99.90;;;;;;5001986;28;20574;-75
2023/02/22 06:36:59;;;;;;;227.45;58.90;;;7.10;99.90;;;;;;5021582;28;20052;-75
2023/02/22 06:39:28;;;;;;;243.73;63.08;;;7.10;99.90;;;;;;5008601;28;20462;-74
2023/02/22 06:41:56;;;;;;;217.77;60.90;;;7.10;99.90;;;;;;5034389;28;20053;-74
2023/02/22 06:44:23;;;;;;;240.70;70.60;;;7.00;99.90;;;;;;5006963;28;20034;-75
2023/02/22 06:46:50;;;;;;;238.57;63.97;;;7.10;99.90;;;;;;5032363;28;20045;-75
2023/02/22 06:49:18;;;;;;;238.05;60.95;;;7.10;99.90;;;;;;5020361;28;20084;-75
2023/02/22 06:51:45;;;;;;;226.23;67.65;;;7.10;99.90;;;;;;5012715;28;20049;-76
2023/02/22 06:54:13;;;;;;;236.98;63.88;;;7.10;99.90;;;;;;5010445;28;20089;-76
2023/02/22 06:56:40;;;;;;;245.27;62.70;;;7.10;99.90;;;;;;5012932;28;20057;-75
2023/02/22 06:59:07;;;;;;;237.48;68.10;;;7.10;99.90;;;;;;5016987;28;20510;-75
2023/02/22 07:01:34;;;;;;;224.07;63.88;;;7.10;99.90;;;;;;5018304;28;20063;-75
2023/02/22 07:04:01;;;;;;;225.02;67.93;;;7.10;99.90;;;;;;5017670;28;20048;-75
2023/02/22 07:06:28;;;;;;;248.65;68.35;;;7.20;99.90;;;;;;5005443;28;20034;-74
2023/02/22 07:08:54;;;;;;;238.43;68.85;;;7.10;99.90;;;;;;5004857;28;20033;-75
2023/02/22 07:11:22;;;;;;;240.80;69.05;;;7.10;99.90;;;;;;5011722;28;20248;-76
2023/02/22 07:13:48;;;;;;;221.43;63.75;;;7.20;99.90;;;;;;5013311;28;20049;-75
2023/02/22 07:16:15;;;;;;;211.23;62.78;;;7.20;99.90;;;;;;5004858;28;20055;-76
2023/02/22 07:18:42;;;;;;;229.35;68.40;;;7.10;99.90;;;;;;4995699;28;20065;-77
2023/02/22 07:21:09;;;;;;;233.35;68.10;;;7.10;99.90;;;;;;5008695;28;20046;-74
2023/02/22 07:23:37;;;;;;;218.88;66.75;;;7.10;99.90;;;;;;4998215;28;20051;-79
2023/02/22 07:26:07;;;;;;;202.10;67.32;;;7.10;99.90;;;;;;5016084;28;20183;-74
2023/02/22 07:28:33;;;;;;;178.63;59.70;;;7.10;99.90;;;;;;5002903;28;20045;-74
2023/02/22 07:31:01;;;;;;;185.60;63.42;;;7.20;99.90;;;;;;5012557;28;20052;-77
2023/02/22 07:33:30;;;;;;;189.52;59.42;;;7.10;99.90;;;;;;5013430;28;20635;-74
2023/02/22 07:35:57;;;;;;;208.38;63.88;;;7.10;99.90;;;;;;5026044;28;20713;-74
2023/02/22 07:38:23;;;;;;;185.38;61.42;;;7.00;99.90;;;;;;5016973;28;20041;-76
2023/02/22 07:40:50;;;;;;;189.95;61.50;;;7.10;99.90;;;;;;5022531;28;20066;-74
2023/02/22 07:43:23;;;;;;;180.68;61.85;;;7.10;99.90;;;;;;5005933;28;20137;-74
2023/02/22 07:45:54;;;;;;;165.48;58.47;;;7.20;99.90;;;;;;5014540;28;20103;-77
2023/02/22 07:48:23;;;;;;;182.27;59.85;;;7.20;99.90;;;;;;5013307;28;20132;-75
2023/02/22 07:50:50;;;;;;;172.77;56.22;;;7.20;99.90;;;;;;5011782;28;20042;-77
2023/02/22 07:53:20;;;;;;;169.63;57.63;;;7.20;99.90;;;;;;5003930;28;20053;-76
2023/02/22 07:55:50;;;;;;;154.38;53.53;;;7.30;99.90;;;;;;5015429;28;20049;-76
2023/02/22 07:58:21;;;;;;;154.43;53.47;;;7.30;99.90;;;;;;5019984;28;20129;-77
2023/02/22 08:00:49;;;;;;;145.77;54.08;;;7.40;99.90;;;;;;5010179;28;21343;-76
2023/02/22 08:03:17;;;;;;;154.63;56.17;;;7.30;99.90;;;;;;5031585;28;20325;-78
2023/02/22 08:05:50;;;;;;;139.18;50.60;;;7.40;99.90;;;;;;5014985;28;20049;-76
2023/02/22 08:08:17;;;;;;;120.75;43.17;;;7.40;99.90;;;;;;5005427;28;20592;-77
2023/02/22 08:10:46;;;;;;;145.20;52.63;;;7.40;99.90;;;;;;5015477;28;20064;-78
2023/02/22 08:13:13;;;;;;;136.90;52.97;;;7.40;99.90;;;;;;5018831;28;20065;-76
2023/02/22 08:15:42;;;;;;;137.40;50.92;;;7.40;99.90;;;;;;5015403;28;20045;-77
2023/02/22 08:18:12;;;;;;;119.05;48.08;;;7.50;99.90;;;;;;5008501;28;20041;-76
2023/02/22 08:20:42;;;;;;;121.13;50.90;;;7.50;99.90;;;;;;5021597;28;20083;-78
2023/02/22 08:23:11;;;;;;;108.32;45.38;;;7.60;99.90;;;;;;5016414;28;20065;-76
2023/02/22 08:25:37;;;;;;;123.38;49.08;;;7.60;99.90;;;;;;5013524;28;20064;-76
2023/02/22 08:28:09;;;;;;;102.45;45.47;;;7.70;99.90;;;;;;5009923;28;20072;-76
2023/02/22 08:30:37;;;;;;;108.88;45.75;;;7.70;99.90;;;;;;5015147;28;20046;-76
2023/02/22 08:33:06;;;;;;;97.10;40.72;;;7.70;99.90;;;;;;5001839;28;20042;-76
2023/02/22 08:35:33;;;;;;;108.13;46.45;;;7.80;99.90;;;;;;5011723;28;20514;-77
2023/02/22 08:38:03;;;;;;;83.85;40.20;;;7.90;99.90;;;;;;5011997;28;20045;-75
2023/02/22 08:40:33;;;;;;;94.10;39.53;;;7.80;99.90;;;;;;5010119;28;20084;-76
2023/02/22 08:43:00;;;;;;;84.65;38.83;;;7.80;99.90;;;;;;5007651;28;20116;-77
2023/02/22 08:45:28;;;;;;;86.35;39.28;;;7.90;99.90;;;;;;5008832;28;20045;-77
2023/02/22 08:47:55;;;;;;;79.72;39.25;;;7.80;99.90;;;;;;5000033;28;20049;-76
2023/02/22 08:50:32;;;;;;;90.22;39.83;;;7.70;99.90;;;;;;5012639;28;20402;-75
2023/02/22 08:53:01;;;;;;;83.18;35.30;;;7.70;99.90;;;;;;4992570;28;20046;-76
2023/02/22 08:55:31;;;;;;;74.55;35.63;;;7.80;99.90;;;;;;5013113;28;20503;-75
2023/02/22 08:58:00;;;;;;;74.30;33.60;;;7.80;99.90;;;;;;5027887;28;20116;-77
2023/02/22 09:00:29;;;;;;;70.80;32.15;;;7.80;99.90;;;;;;5002972;28;20069;-76
2023/02/22 09:02:56;;;;;;;77.82;37.55;;;7.80;99.90;;;;;;5013005;28;20117;-77
2023/02/22 09:05:23;;;;;;;70.53;33.47;;;8.00;99.90;;;;;;5019463;28;20041;-75
2023/02/22 09:07:49;;;;;;;74.38;34.50;;;8.10;99.90;;;;;;5014750;28;20040;-76
2023/02/22 09:10:19;;;;;;;67.68;32.50;;;8.20;99.90;;;;;;5016474;28;20121;-78
2023/02/22 09:12:46;;;;;;;65.18;33.38;;;8.30;99.90;;;;;;5016460;28;20055;-78
2023/02/22 09:15:14;;;;;;;66.55;35.00;;;8.40;99.90;;;;;;5011326;28;20467;-77
2023/02/22 09:17:41;;;;;;;64.78;32.28;;;8.50;99.90;;;;;;5017450;28;20054;-78
2023/02/22 09:20:11;;;;;;;55.08;29.65;;;8.40;99.90;;;;;;4997214;28;20050;-78
2023/02/22 09:22:38;;;;;;;55.42;32.08;;;8.50;99.90;;;;;;4988024;28;20428;-76
2023/02/22 09:25:05;;;;;;;66.72;32.72;;;8.40;99.90;;;;;;5017683;28;20110;-77
2023/02/22 09:27:42;;;;;;;58.95;32.47;;;8.70;99.90;;;;;;5008389;28;20076;-79
2023/02/22 09:30:33;;;;;;;52.65;29.20;;;8.90;99.90;;;;;;5007132;28;20579;-78
2023/02/22 09:33:04;;;;;;;51.47;30.77;;;9.10;99.90;;;;;;5027179;28;20052;-79
2023/02/22 09:35:34;;;;;;;42.95;28.05;;;9.30;99.90;;;;;;5009935;28;20129;-77
2023/02/22 09:38:04;;;;;;;46.67;28.17;;;9.50;99.90;;;;;;5007515;28;20065;-78
2023/02/22 09:40:39;;;;;;;39.45;26.40;;;9.70;99.90;;;;;;5009955;28;20061;-77
2023/02/22 09:43:36;;;;;;;43.65;28.05;;;9.90;99.90;;;;;;5017528;28;20045;-76
2023/02/22 09:46:21;;;;;;;40.25;27.13;;;9.90;99.90;;;;;;5027895;28;20045;-77
2023/02/22 09:49:27;;;;;;;39.20;28.25;;;10.00;99.90;;;;;;5021299;28;21417;-76
2023/02/22 09:52:19;;;;;;;39.63;28.58;;;10.10;99.90;;;;;;4995768;28;20046;-77
2023/02/22 09:54:52;;;;;;;37.55;27.92;;;10.00;99.90;;;;;;5028211;28;20742;-76
2023/02/22 09:57:27;;;;;;;36.38;27.92;;;10.30;99.90;;;;;;5021834;28;20040;-78
2023/02/22 10:00:12;;;;;;;36.95;28.50;;;10.50;99.90;;;;;;5005565;28;20049;-76
2023/02/22 10:02:59;;;;;;;38.00;32.20;;;10.70;99.90;;;;;;5003497;28;20056;-77
2023/02/22 10:05:40;;;;;;;40.75;32.30;;;10.50;99.90;;;;;;5021137;28;20094;-76
2023/02/22 10:08:13;;;;;;;38.00;29.45;;;10.10;99.90;;;;;;5007467;28;20044;-77
2023/02/22 10:10:46;;;;;;;40.35;29.65;;;10.10;99.90;;;;;;5017145;28;20433;-77
2023/02/22 10:13:22;;;;;;;42.30;34.63;;;10.20;99.90;;;;;;5020357;28;20041;-76
2023/02/22 10:15:57;;;;;;;38.75;31.65;;;10.20;99.90;;;;;;5017206;28;20042;-77
2023/02/22 10:18:56;;;;;;;42.03;33.85;;;10.30;99.90;;;;;;5005091;28;20045;-77
2023/02/22 10:21:37;;;;;;;43.10;34.58;;;10.30;99.90;;;;;;5010470;28;20042;-76
2023/02/22 10:24:28;;;;;;;35.97;31.63;;;10.50;99.90;;;;;;5012083;28;20593;-75
2023/02/22 10:26:57;;;;;;;40.00;31.80;;;10.50;99.90;;;;;;5024333;28;20481;-76
2023/02/22 10:29:27;;;;;;;41.75;32.90;;;10.60;99.90;;;;;;5020832;28;20041;-76
2023/02/22 10:31:57;;;;;;;44.78;33.28;;;10.40;99.90;;;;;;5020229;28;20141;-77
2023/02/22 10:34:30;;;;;;;40.15;32.92;;;10.30;99.90;;;;;;5024943;28;20046;-75
2023/02/22 10:37:07;;;;;;;42.67;32.30;;;10.10;99.90;;;;;;5007715;28;20045;-76
2023/02/22 10:39:37;;;;;;;40.67;29.90;;;9.90;99.90;;;;;;5022929;28;20052;-77
2023/02/22 10:42:06;;;;;;;41.97;31.02;;;9.80;99.90;;;;;;5023506;28;20045;-76
2023/02/22 10:44:38;;;;;;;45.53;32.05;;;9.70;99.90;;;;;;5019713;28;20127;-77
2023/02/22 10:47:09;;;;;;;40.95;28.33;;;9.60;99.90;;;;;;5015029;28;20042;-76
2023/02/22 10:49:43;;;;;;;39.15;28.17;;;9.60;99.90;;;;;;5014070;28;20049;-79
2023/02/22 10:52:28;;;;;;;39.95;27.55;;;9.60;99.90;;;;;;5021747;28;20051;-76
2023/02/22 10:54:57;;;;;;;42.05;28.15;;;9.60;99.90;;;;;;5023820;28;20064;-80
2023/02/22 10:57:41;;;;;;;49.58;40.22;;;9.70;99.90;;;;;;5042414;28;20045;-81
2023/02/22 11:00:28;;;;;;;41.00;29.85;;;9.70;99.90;;;;;;5036423;28;20045;-81
2023/02/22 11:03:00;;;;;;;37.22;27.77;;;9.80;99.90;;;;;;5032508;28;20135;-79
2023/02/22 11:05:35;;;;;;;37.20;29.42;;;9.90;99.90;;;;;;5021541;28;20132;-81
2023/02/22 11:08:20;;;;;;;;;;;10.10;99.90;;;;;;5026687;28;20145;-78
2023/02/22 11:10:48;;;;;;;36.25;29.70;;;10.30;99.90;;;;;;5003682;28;19935;-78
2023/02/22 11:13:24;;;;;;;37.72;29.50;;;10.20;99.90;;;;;;5013616;28;20107;-81
2023/02/22 11:15:58;;;;;;;37.70;30.80;;;9.90;99.90;;;;;;5004945;28;20072;-78
2023/02/22 11:18:32;;;;;;;33.97;28.27;;;9.90;99.90;;;;;;5018259;28;20052;-79
2023/02/22 11:21:09;;;;;;;33.97;26.65;;;10.00;99.90;;;;;;5034591;28;20041;-80
2023/02/22 11:23:40;;;;;;;42.33;30.58;;;9.80;99.90;;;;;;5005263;28;20140;-78
2023/02/22 11:26:14;;;;;;;35.15;27.85;;;9.70;99.90;;;;;;5004203;28;20110;-78
2023/02/22 11:28:54;;;;;;;36.50;28.83;;;9.90;99.90;;;;;;5021876;28;20049;-78
2023/02/22 11:31:26;;;;;;;41.17;29.17;;;9.90;99.90;;;;;;5018175;28;20642;-78
2023/02/22 11:33:59;;;;;;;30.60;24.50;;;10.10;99.90;;;;;;5018822;28;20041;-79
2023/02/22 11:36:31;;;;;;;35.00;28.48;;;10.10;99.90;;;;;;5022124;28;20566;-79
2023/02/22 11:38:59;;;;;;;31.23;26.77;;;10.20;99.90;;;;;;5011822;28;20045;-77
2023/02/22 11:41:29;;;;;;;34.47;28.20;;;10.20;99.90;;;;;;5016009;28;20041;-78
2023/02/22 11:44:13;;;;;;;33.05;28.02;;;10.30;99.90;;;;;;5017938;28;20064;-78
2023/02/22 11:46:41;;;;;;;36.95;27.92;;;10.60;99.90;;;;;;5008791;28;20050;-78
2023/02/22 11:49:11;;;;;;;31.63;27.00;;;10.60;99.90;;;;;;5020066;28;20129;-79
2023/02/22 11:51:51;;;;;;;31.70;27.73;;;10.80;99.90;;;;;;5012914;28;20140;-80
2023/02/22 11:54:51;;;;;;;32.35;28.80;;;11.10;99.90;;;;;;5013808;28;20038;-78
2023/02/22 11:57:35;;;;;;;32.05;28.75;;;11.60;99.90;;;;;;5026267;28;20125;-75
2023/02/22 12:00:25;;;;;;;33.38;30.08;;;11.80;99.90;;;;;;5027993;28;20083;-75
2023/02/22 12:03:16;;;;;;;33.83;30.50;;;11.90;99.90;;;;;;5010819;28;20033;-77
2023/02/22 12:06:07;;;;;;;34.05;30.67;;;11.80;99.90;;;;;;5001587;28;20049;-77
2023/02/22 12:08:45;;;;;;;35.92;32.28;;;11.80;99.90;;;;;;5018915;28;20056;-78
2023/02/22 12:11:38;;;;;;;34.22;30.98;;;11.80;99.90;;;;;;5019996;28;20049;-76
2023/02/22 12:14:46;;;;;;;32.40;29.30;;;11.80;99.90;;;;;;5018908;28;20068;-77
2023/02/22 12:17:20;;;;;;;34.22;30.60;;;11.70;99.90;;;;;;5018628;28;20048;-76
2023/02/22 12:19:51;;;;;;;31.88;28.67;;;11.80;99.90;;;;;;5019833;28;20177;-79
2023/02/22 12:22:38;;;;;;;32.42;29.27;;;11.50;99.90;;;;;;5019591;28;20467;-77
2023/02/22 12:25:19;;;;;;;30.25;27.15;;;11.60;99.90;;;;;;5018405;28;20038;-78
2023/02/22 12:28:13;;;;;;;31.90;29.00;;;11.60;99.90;;;;;;5026528;28;20521;-80
2023/02/22 12:31:21;;;;;;;31.40;28.50;;;11.60;99.90;;;;;;5015221;28;20037;-78
2023/02/22 12:34:06;;;;;;;30.45;27.48;;;11.80;99.90;;;;;;5003250;28;20176;-79
2023/02/22 12:36:52;;;;;;;31.52;28.63;;;12.00;99.90;;;;;;5014225;28;20037;-78
2023/02/22 12:39:37;;;;;;;34.50;31.23;;;12.30;99.90;;;;;;5004072;28;20453;-77
2023/02/22 12:42:40;;;;;;;32.10;29.23;;;12.30;99.90;;;;;;5027702;28;20033;-75
2023/02/22 12:45:15;;;;;;;32.15;29.55;;;12.40;99.90;;;;;;5029332;28;20045;-76
2023/02/22 12:47:54;;;;;;;34.30;31.13;;;12.60;99.90;;;;;;5018058;28;20049;-76
2023/02/22 12:50:27;;;;;;;33.00;30.23;;;12.60;99.90;;;;;;5017918;28;20068;-79
2023/02/22 12:53:03;;;;;;;35.72;32.55;;;12.50;99.90;;;;;;5033289;28;20555;-78
2023/02/22 12:55:33;;;;;;;;;;;12.40;99.90;;;;;;5019673;28;20732;-76